首页
METAR-TAF:

METAR-TAF

机场 :

Donau

纽因堡, 德国

纬度: 48-43N, 经度: 011-13E, 海拔: 380米

当前天气观测

该预报发布于53分钟前的09:20 UTC
风速4节,风向
温度 3°C
湿度 93%
气压 1010 hPa
能見度: 4000
阴天层高于300英尺
轻雾

METAR: ETSN 220920Z 09004KT 4000 BR OVC003 03/02 Q1010 YLO YLO TEMPO AMB

时间: 11:13 (10:13 UTC)

预报

该预报发布于1小时和53分钟前的08:20 UTC
预报有效从22日的 09点(UTC)到 22日的 18点(UTC)
风速3节,风向
能見度: 5000
阴天层高于500英尺
轻雾
短暂存在
从 22日的 09点(UTC)到 22日的 10点(UTC)
风速3节,风向
能見度: 3000
阴天层高于200英尺
轻雾
成为
从 22日的 11点(UTC)到 22日的 13点(UTC)
风速5节,风向
能見度: 8000
多云层高于800英尺
短暂存在
从 22日的 16点(UTC)到 22日的 18点(UTC)
风速4节,风向东转东北
能見度: 3000
多云层高于300英尺
轻雾

TAF: ETSN 220820Z 2209/2218 08003KT 5000 BR OVC005 TEMPO 2209/2210 09003KT 3000 BR OVC002 BECMG 2211/2213 10005KT 8000 NSW BKN008 TEMPO 2216/2218 06004KT 3000 BR BKN003 BY ETGL

超过4000个机场的气象观测和天气预报(METAR&TAF报告)。

可查询的气象台以黄色和红色小点在地图上表示。

将鼠标移到小点上方,可查看气象台名称。

然后点击查看天气观测和预报。

如需切换地图:点击带黑十字的绿色按钮放大地图;点击带横线的绿色按钮缩小地图;或者点击绿色箭头查看邻近地区的地图。


METAR-TAF: